Time;durP1;ratioP1;P1;durP2;ratioP2;P2;SDS_P1;SDS_P2;PMS_P1;PMS_P2;Temp;Humidity;BMP_temperature;BMP_pressure;BME280_temperature;BME280_humidity;BME280_pressure;Samples;Min_cycle;Max_cycle;Signal;HPM_P1;HPM_P2
2022/09/27 00:01:02;;;;;;;1.42;0.90;;;;;;;;;;5014188;28;94869;-59
2022/09/27 00:03:28;;;;;;;1.10;0.98;;;;;;;;;;5017113;28;93975;-59
2022/09/27 00:06:06;;;;;;;1.17;1.05;;;;;;;;;;5018830;28;93264;-59
2022/09/27 00:08:33;;;;;;;1.27;0.98;;;;;;;;;;5016953;28;93227;-59
2022/09/27 00:11:00;;;;;;;1.40;0.93;;;;;;;;;;5016424;28;93440;-59
2022/09/27 00:13:27;;;;;;;1.33;1.20;;;;;;;;;;5016042;28;92551;-59
2022/09/27 00:16:03;;;;;;;1.83;1.10;;;;;;;;;;5017545;28;92997;-59
2022/09/27 00:18:31;;;;;;;1.30;0.98;;;;;;;;;;5017241;28;92496;-59
2022/09/27 00:21:08;;;;;;;2.03;0.77;;;;;;;;;;5015455;28;92515;-59
2022/09/27 00:23:34;;;;;;;1.67;0.80;;;;;;;;;;5016139;28;92513;-59
2022/09/27 00:26:01;;;;;;;0.70;0.70;;;;;;;;;;5014115;28;95855;-59
2022/09/27 00:28:27;;;;;;;0.90;0.90;;;;;;;;;;5018680;28;92496;-59
2022/09/27 00:30:54;;;;;;;0.75;0.70;;;;;;;;;;5016604;28;93264;-59
2022/09/27 00:33:20;;;;;;;1.52;1.13;;;;;;;;;;5016790;28;92464;-59
2022/09/27 00:35:47;;;;;;;1.50;0.80;;;;;;;;;;5016082;28;92870;-59
2022/09/27 00:38:13;;;;;;;0.75;0.70;;;;;;;;;;5014477;28;93495;-59
2022/09/27 00:40:39;;;;;;;1.85;0.77;;;;;;;;;;5016892;28;92404;-59
2022/09/27 00:43:13;;;;;;;0.95;0.80;;;;;;;;;;5014376;28;93034;-59
2022/09/27 00:45:40;;;;;;;1.13;1.00;;;;;;;;;;5014712;28;93616;-59
2022/09/27 00:48:06;;;;;;;1.20;0.73;;;;;;;;;;5014004;28;92420;-59
2022/09/27 00:50:36;;;;;;;1.40;0.90;;;;;;;;;;5035689;28;95054;-59
2022/09/27 00:53:02;;;;;;;2.72;0.90;;;;;;;;;;5015890;28;92780;-59
2022/09/27 00:55:32;;;;;;;2.17;1.13;;;;;;;;;;5014312;28;93228;-59
2022/09/27 00:57:58;;;;;;;2.20;0.93;;;;;;;;;;5014975;28;93039;-59
2022/09/27 01:00:25;;;;;;;3.78;0.90;;;;;;;;;;5014945;28;92633;-59
2022/09/27 01:02:52;;;;;;;1.35;0.90;;;;;;;;;;5013873;28;93203;-59
2022/09/27 01:05:21;;;;;;;1.73;1.17;;;;;;;;;;5016068;28;93392;-59
2022/09/27 01:07:48;;;;;;;1.10;1.00;;;;;;;;;;5014670;28;91792;-59
2022/09/27 01:10:15;;;;;;;1.23;0.90;;;;;;;;;;5018093;28;92363;-59
2022/09/27 01:12:49;;;;;;;1.02;0.82;;;;;;;;;;5016048;28;92668;-59
2022/09/27 01:15:27;;;;;;;2.92;1.02;;;;;;;;;;5014469;28;94873;-59
2022/09/27 01:18:02;;;;;;;2.58;0.80;;;;;;;;;;5015004;28;93259;-59
2022/09/27 01:20:47;;;;;;;0.82;0.82;;;;;;;;;;5015988;28;92573;-59
2022/09/27 01:23:16;;;;;;;1.77;0.90;;;;;;;;;;5015224;28;92404;-59
2022/09/27 01:25:56;;;;;;;1.27;0.60;;;;;;;;;;5013956;28;96635;-59
2022/09/27 01:28:25;;;;;;;1.85;0.80;;;;;;;;;;5014222;28;92535;-59
2022/09/27 01:30:59;;;;;;;0.93;0.70;;;;;;;;;;5015141;28;93048;-59
2022/09/27 01:33:44;;;;;;;0.98;0.80;;;;;;;;;;5018005;28;92364;-59
2022/09/27 01:36:14;;;;;;;1.30;0.75;;;;;;;;;;5013794;28;92545;-59
2022/09/27 01:38:46;;;;;;;1.92;0.70;;;;;;;;;;5012577;28;94427;-59
2022/09/27 01:41:21;;;;;;;1.00;0.82;;;;;;;;;;5012846;28;95120;-59
2022/09/27 01:44:32;;;;;;;0.93;0.68;;;;;;;;;;5013897;28;95451;-59
2022/09/27 01:47:11;;;;;;;0.50;0.50;;;;;;;;;;5013284;28;93180;-59
2022/09/27 01:49:47;;;;;;;1.58;0.80;;;;;;;;;;5013900;28;92707;-59
2022/09/27 01:52:16;;;;;;;4.28;0.95;;;;;;;;;;5012623;28;92932;-59
2022/09/27 01:54:46;;;;;;;1.00;0.95;;;;;;;;;;5013906;28;93408;-59
2022/09/27 01:57:29;;;;;;;0.93;0.60;;;;;;;;;;5017796;28;92585;-59
2022/09/27 01:59:58;;;;;;;1.40;0.85;;;;;;;;;;5013711;28;92542;-59
2022/09/27 02:03:08;;;;;;;2.22;0.90;;;;;;;;;;5014705;28;92500;-59
2022/09/27 02:05:38;;;;;;;0.98;0.73;;;;;;;;;;5005241;28;92936;-59
2022/09/27 02:08:27;;;;;;;0.60;0.60;;;;;;;;;;5011854;28;96665;-59
2022/09/27 02:10:57;;;;;;;0.77;0.77;;;;;;;;;;5012744;28;92758;-59
2022/09/27 02:13:30;;;;;;;1.52;0.93;;;;;;;;;;5013502;28;93027;-59
2022/09/27 02:16:21;;;;;;;1.00;0.65;;;;;;;;;;5013473;28;94090;-59
2022/09/27 02:18:51;;;;;;;0.93;0.70;;;;;;;;;;5013526;28;92393;-59
2022/09/27 02:21:18;;;;;;;2.17;0.90;;;;;;;;;;5015531;28;93117;-59
2022/09/27 02:23:46;;;;;;;0.70;0.70;;;;;;;;;;5013726;28;92474;-59
2022/09/27 02:26:21;;;;;;;2.35;0.90;;;;;;;;;;5013692;28;92925;-59
2022/09/27 02:28:53;;;;;;;0.90;0.68;;;;;;;;;;5012867;28;93232;-59
2022/09/27 02:31:29;;;;;;;2.08;0.80;;;;;;;;;;5014032;28;92575;-59
2022/09/27 02:34:19;;;;;;;1.13;0.90;;;;;;;;;;5010622;28;95060;-59
2022/09/27 02:36:47;;;;;;;1.75;0.75;;;;;;;;;;5007863;28;93437;-59
2022/09/27 02:39:14;;;;;;;5.97;1.00;;;;;;;;;;5013126;28;92462;-59
2022/09/27 02:41:41;;;;;;;0.77;0.73;;;;;;;;;;5012892;28;93366;-59
2022/09/27 02:44:09;;;;;;;1.30;0.88;;;;;;;;;;5015998;28;95139;-59
2022/09/27 02:46:54;;;;;;;0.75;0.70;;;;;;;;;;5013079;28;93790;-59
2022/09/27 02:49:36;;;;;;;2.20;0.90;;;;;;;;;;5012137;28;94876;-59
2022/09/27 02:52:49;;;;;;;0.95;0.70;;;;;;;;;;5013507;28;91814;-59
2022/09/27 02:55:26;;;;;;;0.70;0.70;;;;;;;;;;5012056;28;92498;-59
2022/09/27 02:58:17;;;;;;;1.95;0.98;;;;;;;;;;5012848;28;94981;-59
2022/09/27 03:01:08;;;;;;;1.25;0.60;;;;;;;;;;5010670;28;94956;-59
2022/09/27 03:03:57;;;;;;;2.67;0.70;;;;;;;;;;5013272;28;95231;-59
2022/09/27 03:06:24;;;;;;;1.92;0.70;;;;;;;;;;5032144;28;94944;-59
2022/09/27 03:08:50;;;;;;;1.92;0.90;;;;;;;;;;5035361;28;92424;-59
2022/09/27 03:11:17;;;;;;;1.08;0.70;;;;;;;;;;5032649;28;93135;-59
2022/09/27 03:13:44;;;;;;;0.77;0.70;;;;;;;;;;5033138;28;92590;-59
2022/09/27 03:16:32;;;;;;;3.17;0.88;;;;;;;;;;5027336;28;92906;-59
2022/09/27 03:19:09;;;;;;;1.80;0.80;;;;;;;;;;5013028;28;92483;-59
2022/09/27 03:21:55;;;;;;;3.42;0.90;;;;;;;;;;5023821;28;92472;-59
2022/09/27 03:24:22;;;;;;;1.48;0.95;;;;;;;;;;5035714;28;95962;-59
2022/09/27 03:26:49;;;;;;;2.50;0.90;;;;;;;;;;5028171;28;96667;-59
2022/09/27 03:29:16;;;;;;;0.95;0.93;;;;;;;;;;5018825;28;92406;-59
2022/09/27 03:31:47;;;;;;;1.37;0.87;;;;;;;;;;5015336;28;93182;-59
2022/09/27 03:34:40;;;;;;;1.15;0.85;;;;;;;;;;5015932;28;93583;-59
2022/09/27 03:37:07;;;;;;;4.70;1.17;;;;;;;;;;5016583;28;92897;-59
2022/09/27 03:39:33;;;;;;;0.77;0.70;;;;;;;;;;5015267;28;94127;-59
2022/09/27 03:42:00;;;;;;;0.70;0.70;;;;;;;;;;5015734;28;92332;-59
2022/09/27 03:44:26;;;;;;;2.30;1.20;;;;;;;;;;5015983;28;92997;-59
2022/09/27 03:46:53;;;;;;;0.90;0.80;;;;;;;;;;5015194;28;93404;-59
2022/09/27 03:49:19;;;;;;;1.48;1.00;;;;;;;;;;5017229;28;92408;-59
2022/09/27 03:51:45;;;;;;;1.88;0.75;;;;;;;;;;5015908;28;95689;-59
2022/09/27 03:54:12;;;;;;;3.13;1.00;;;;;;;;;;5015795;28;92550;-59
2022/09/27 03:56:38;;;;;;;1.52;1.02;;;;;;;;;;5017924;28;92773;-59
2022/09/27 03:59:06;;;;;;;1.67;1.00;;;;;;;;;;5015913;28;94051;-59
2022/09/27 04:01:52;;;;;;;2.45;1.15;;;;;;;;;;5016249;28;92323;-59
2022/09/27 04:04:38;;;;;;;1.80;0.98;;;;;;;;;;5016607;28;92585;-59
2022/09/27 04:07:04;;;;;;;1.50;0.82;;;;;;;;;;5016130;28;93003;-59
2022/09/27 04:09:31;;;;;;;1.33;0.63;;;;;;;;;;5016269;28;93185;-59
2022/09/27 04:11:59;;;;;;;1.10;0.90;;;;;;;;;;5014803;28;92588;-59
2022/09/27 04:14:26;;;;;;;0.80;0.75;;;;;;;;;;5020237;28;93178;-59
2022/09/27 04:17:10;;;;;;;1.13;0.90;;;;;;;;;;5013867;28;94774;-59
2022/09/27 04:20:02;;;;;;;3.22;1.05;;;;;;;;;;5015157;28;92853;-59
2022/09/27 04:22:29;;;;;;;2.70;0.88;;;;;;;;;;5015293;28;92514;-59
2022/09/27 04:24:56;;;;;;;1.80;1.10;;;;;;;;;;5015644;28;94851;-59
2022/09/27 04:27:32;;;;;;;3.95;1.00;;;;;;;;;;5014588;28;93234;-59
2022/09/27 04:29:59;;;;;;;1.40;0.95;;;;;;;;;;5015697;28;92689;-59
2022/09/27 04:32:57;;;;;;;1.45;0.95;;;;;;;;;;5014933;28;92516;-59
2022/09/27 04:38:41;;;;;;;2.08;1.00;;;;;;;;;;5018566;28;92498;-59
2022/09/27 04:41:08;;;;;;;2.58;1.10;;;;;;;;;;5013695;28;95047;-59
2022/09/27 04:43:37;;;;;;;1.13;0.90;;;;;;;;;;5013545;28;94967;-60
2022/09/27 04:46:05;;;;;;;1.48;1.05;;;;;;;;;;5014380;28;97259;-59
2022/09/27 04:48:31;;;;;;;1.45;0.93;;;;;;;;;;5014127;28;93195;-59
2022/09/27 04:50:59;;;;;;;5.25;1.02;;;;;;;;;;5014791;28;92471;-59
2022/09/27 04:53:25;;;;;;;2.30;1.20;;;;;;;;;;5015506;28;92373;-59
2022/09/27 04:55:53;;;;;;;1.17;0.90;;;;;;;;;;5014082;28;93816;-59
2022/09/27 04:58:20;;;;;;;2.03;1.25;;;;;;;;;;5014298;28;92479;-59
2022/09/27 05:00:47;;;;;;;2.08;1.08;;;;;;;;;;5017703;28;94722;-59
2022/09/27 05:03:33;;;;;;;2.55;1.27;;;;;;;;;;5014231;28;92486;-59
2022/09/27 05:06:08;;;;;;;1.52;0.85;;;;;;;;;;5015986;28;92690;-59
2022/09/27 05:08:34;;;;;;;1.08;0.93;;;;;;;;;;5012156;28;95535;-59
2022/09/27 05:11:18;;;;;;;1.80;1.10;;;;;;;;;;5014455;28;92515;-59
2022/09/27 05:14:03;;;;;;;2.03;0.88;;;;;;;;;;5015363;28;93048;-59
2022/09/27 05:16:37;;;;;;;1.45;0.90;;;;;;;;;;5013390;28;94058;-59
2022/09/27 05:19:30;;;;;;;1.73;1.10;;;;;;;;;;4998219;28;92503;-59
2022/09/27 05:21:59;;;;;;;1.40;1.02;;;;;;;;;;5034809;28;92832;-59
2022/09/27 05:24:27;;;;;;;1.35;1.00;;;;;;;;;;5033639;28;92594;-59
2022/09/27 05:26:53;;;;;;;2.17;1.10;;;;;;;;;;5036341;28;92685;-59
2022/09/27 05:29:20;;;;;;;8.32;1.17;;;;;;;;;;5033564;28;93040;-59
2022/09/27 05:32:01;;;;;;;2.38;1.30;;;;;;;;;;5034439;28;93867;-59
2022/09/27 05:34:28;;;;;;;1.63;0.90;;;;;;;;;;5032930;28;95014;-59
2022/09/27 05:36:57;;;;;;;4.45;1.33;;;;;;;;;;5034238;28;93040;-59
2022/09/27 05:39:24;;;;;;;2.35;0.95;;;;;;;;;;5025105;28;92596;-59
2022/09/27 05:41:53;;;;;;;3.75;1.15;;;;;;;;;;5015932;28;93195;-59
2022/09/27 05:44:19;;;;;;;2.78;1.10;;;;;;;;;;5017383;28;93343;-59
2022/09/27 05:46:54;;;;;;;0.90;0.82;;;;;;;;;;5013895;28;93026;-59
2022/09/27 05:49:20;;;;;;;2.42;1.35;;;;;;;;;;5012915;28;95016;-59
2022/09/27 05:51:47;;;;;;;2.95;0.90;;;;;;;;;;5014931;28;91632;-59
2022/09/27 05:54:13;;;;;;;0.85;0.77;;;;;;;;;;5015678;28;92638;-59
2022/09/27 05:56:40;;;;;;;0.80;0.80;;;;;;;;;;5023809;28;93176;-59
2022/09/27 05:59:17;;;;;;;2.85;1.20;;;;;;;;;;5005476;28;96950;-59
2022/09/27 06:02:02;;;;;;;1.35;1.23;;;;;;;;;;4998548;28;94747;-59
2022/09/27 06:04:48;;;;;;;1.77;1.10;;;;;;;;;;5000749;28;92680;-59
2022/09/27 06:07:43;;;;;;;1.52;1.00;;;;;;;;;;5001180;28;93810;-58
2022/09/27 06:10:18;;;;;;;2.70;1.02;;;;;;;;;;5006757;28;93359;-58
2022/09/27 06:12:44;;;;;;;1.00;0.90;;;;;;;;;;5009666;28;92498;-59
2022/09/27 06:15:25;;;;;;;2.05;1.15;;;;;;;;;;5010652;28;94814;-59
2022/09/27 06:17:51;;;;;;;4.60;1.05;;;;;;;;;;5032444;28;94232;-59
2022/09/27 06:20:19;;;;;;;3.38;0.95;;;;;;;;;;5027130;28;92554;-59
2022/09/27 06:22:46;;;;;;;2.88;0.90;;;;;;;;;;5013654;28;93296;-59
2022/09/27 06:25:13;;;;;;;2.20;1.00;;;;;;;;;;5011332;28;95755;-61
2022/09/27 06:27:57;;;;;;;3.80;1.35;;;;;;;;;;5012828;28;92436;-61
2022/09/27 06:30:27;;;;;;;2.63;1.13;;;;;;;;;;5012926;28;93196;-59
2022/09/27 06:32:55;;;;;;;3.10;1.17;;;;;;;;;;5011984;28;92396;-59
2022/09/27 06:35:39;;;;;;;1.23;0.73;;;;;;;;;;5035039;28;92619;-59
2022/09/27 06:38:10;;;;;;;1.73;1.00;;;;;;;;;;5011749;28;93626;-59
2022/09/27 06:40:44;;;;;;;2.45;1.10;;;;;;;;;;4992772;28;92546;-59
2022/09/27 06:43:19;;;;;;;2.90;1.33;;;;;;;;;;4993749;28;95559;-59
2022/09/27 06:46:05;;;;;;;2.85;1.10;;;;;;;;;;5001060;28;93232;-59
2022/09/27 06:48:52;;;;;;;1.63;1.08;;;;;;;;;;5012686;28;92478;-59
2022/09/27 06:51:19;;;;;;;1.85;1.30;;;;;;;;;;5011365;28;94730;-59
2022/09/27 06:53:47;;;;;;;2.05;1.23;;;;;;;;;;5014896;28;95046;-59
2022/09/27 06:56:13;;;;;;;2.78;1.33;;;;;;;;;;5013906;28;92917;-59
2022/09/27 07:01:42;;;;;;;1.15;0.95;;;;;;;;;;5015483;28;92555;-59
2022/09/27 07:04:37;;;;;;;1.15;0.80;;;;;;;;;;4998977;28;93715;-59
2022/09/27 07:07:09;;;;;;;2.20;1.20;;;;;;;;;;5014841;28;94807;-58
2022/09/27 07:09:39;;;;;;;1.08;0.98;;;;;;;;;;5017541;28;92187;-59
2022/09/27 07:12:06;;;;;;;2.00;1.30;;;;;;;;;;5013766;28;93605;-59
2022/09/27 07:14:33;;;;;;;2.53;1.20;;;;;;;;;;5016263;28;96391;-59
2022/09/27 07:17:01;;;;;;;4.00;1.13;;;;;;;;;;5017097;28;94938;-59
2022/09/27 07:19:33;;;;;;;2.70;1.15;;;;;;;;;;5021008;28;95417;-59
2022/09/27 07:22:00;;;;;;;1.75;1.17;;;;;;;;;;5035860;28;92547;-59
2022/09/27 07:24:26;;;;;;;2.05;1.20;;;;;;;;;;5036293;28;95073;-59
2022/09/27 07:26:55;;;;;;;2.63;1.05;;;;;;;;;;5036379;28;93236;-59
2022/09/27 07:29:22;;;;;;;3.42;1.10;;;;;;;;;;5035838;28;92506;-59
2022/09/27 07:31:51;;;;;;;2.67;0.82;;;;;;;;;;5002604;28;93289;-59
2022/09/27 07:34:17;;;;;;;2.28;1.27;;;;;;;;;;4997660;28;91592;-59
2022/09/27 07:36:44;;;;;;;1.70;1.00;;;;;;;;;;5006011;28;92998;-59
2022/09/27 07:39:11;;;;;;;1.88;1.00;;;;;;;;;;5006087;28;92491;-58
2022/09/27 07:41:39;;;;;;;2.30;1.05;;;;;;;;;;5014157;28;95062;-58
2022/09/27 07:44:06;;;;;;;1.50;0.93;;;;;;;;;;5016632;28;95441;-59
2022/09/27 07:46:39;;;;;;;2.90;1.20;;;;;;;;;;5015628;28;93251;-58
2022/09/27 07:49:15;;;;;;;2.55;1.08;;;;;;;;;;5015792;28;92490;-59
2022/09/27 07:51:48;;;;;;;;;;;;;;;;;;5015948;28;92664;-59
2022/09/27 07:54:40;;;;;;;1.38;0.80;;;;;;;;;;5017522;28;95318;-59
2022/09/27 07:57:33;;;;;;;2.75;1.63;;;;;;;;;;4992219;28;92412;-59
2022/09/27 08:00:01;;;;;;;1.90;1.00;;;;;;;;;;5017850;28;91783;-59
2022/09/27 08:02:38;;;;;;;2.80;1.20;;;;;;;;;;4996309;28;92475;-59
2022/09/27 08:05:05;;;;;;;1.52;0.90;;;;;;;;;;4994757;28;93182;-59
2022/09/27 08:07:32;;;;;;;2.33;1.08;;;;;;;;;;4993073;28;95588;-59
2022/09/27 08:09:59;;;;;;;5.80;1.05;;;;;;;;;;5022957;28;92939;-59
2022/09/27 08:12:25;;;;;;;3.55;1.10;;;;;;;;;;5012027;28;92905;-59
2022/09/27 08:14:52;;;;;;;2.35;0.90;;;;;;;;;;5015409;28;95844;-59
2022/09/27 08:17:19;;;;;;;5.10;1.00;;;;;;;;;;5015285;28;92544;-59
2022/09/27 08:20:20;;;;;;;1.65;0.90;;;;;;;;;;5004020;28;92526;-59
2022/09/27 08:23:06;;;;;;;1.95;1.25;;;;;;;;;;5017805;28;95010;-59
2022/09/27 08:25:40;;;;;;;1.45;1.05;;;;;;;;;;5015353;28;92710;-59
2022/09/27 08:28:26;;;;;;;3.33;1.00;;;;;;;;;;5015715;28;93124;-59
2022/09/27 08:31:15;;;;;;;4.10;1.10;;;;;;;;;;4996203;28;92492;-59
2022/09/27 08:33:41;;;;;;;1.58;1.48;;;;;;;;;;4992439;28;94961;-61
2022/09/27 08:36:10;;;;;;;1.60;1.20;;;;;;;;;;4995624;28;93421;-59
2022/09/27 08:38:36;;;;;;;2.00;1.48;;;;;;;;;;5014425;28;92478;-59
2022/09/27 08:41:20;;;;;;;12.50;1.65;;;;;;;;;;5013983;28;94860;-59
2022/09/27 08:43:51;;;;;;;2.38;1.10;;;;;;;;;;5014930;28;93242;-59
2022/09/27 08:46:27;;;;;;;1.45;1.10;;;;;;;;;;5017367;28;92459;-59
2022/09/27 08:49:01;;;;;;;2.65;1.30;;;;;;;;;;5014988;28;93110;-59
2022/09/27 08:51:29;;;;;;;2.47;1.20;;;;;;;;;;5015582;28;91785;-59
2022/09/27 08:54:05;;;;;;;2.92;1.27;;;;;;;;;;5014287;28;92524;-59
2022/09/27 08:56:32;;;;;;;2.60;0.90;;;;;;;;;;5006364;28;93778;-59
2022/09/27 08:58:59;;;;;;;2.50;1.25;;;;;;;;;;5002039;28;94930;-59
2022/09/27 09:01:30;;;;;;;1.20;0.90;;;;;;;;;;4999158;28;95270;-59
2022/09/27 09:04:21;;;;;;;3.83;1.25;;;;;;;;;;5004081;28;93142;-59
2022/09/27 09:06:55;;;;;;;3.08;1.40;;;;;;;;;;5006437;28;92651;-59
2022/09/27 09:09:44;;;;;;;3.90;1.13;;;;;;;;;;5017004;28;92915;-59
2022/09/27 09:15:07;;;;;;;2.25;0.90;;;;;;;;;;5014547;28;93789;-59
2022/09/27 09:17:39;;;;;;;2.78;0.95;;;;;;;;;;5015019;28;94243;-59
2022/09/27 09:20:35;;;;;;;2.15;1.15;;;;;;;;;;5014584;28;92764;-59
2022/09/27 09:23:17;;;;;;;1.33;1.05;;;;;;;;;;5013204;28;94802;-59
2022/09/27 09:25:56;;;;;;;0.90;0.90;;;;;;;;;;5005060;28;95698;-59
2022/09/27 09:28:25;;;;;;;3.25;1.17;;;;;;;;;;4995970;28;93201;-59
2022/09/27 09:30:58;;;;;;;1.40;1.02;;;;;;;;;;4997700;28;95359;-59
2022/09/27 09:33:44;;;;;;;2.47;1.10;;;;;;;;;;5017402;28;92401;-59
2022/09/27 09:36:20;;;;;;;1.92;1.00;;;;;;;;;;5013601;28;94751;-59
2022/09/27 09:38:49;;;;;;;1.10;1.00;;;;;;;;;;5012805;28;95389;-59
2022/09/27 09:41:21;;;;;;;1.98;1.00;;;;;;;;;;5013985;28;92599;-59
2022/09/27 09:43:48;;;;;;;2.53;1.00;;;;;;;;;;5014023;28;92852;-59
2022/09/27 09:46:35;;;;;;;1.88;0.93;;;;;;;;;;5013750;28;93194;-59
2022/09/27 09:49:17;;;;;;;2.03;1.50;;;;;;;;;;5013802;28;92537;-59
2022/09/27 09:51:47;;;;;;;3.33;1.73;;;;;;;;;;5011993;28;94918;-59
2022/09/27 09:54:18;;;;;;;2.97;2.78;;;;;;;;;;5017122;28;95076;-59
2022/09/27 09:56:46;;;;;;;7.70;2.30;;;;;;;;;;5012936;28;94827;-59
2022/09/27 09:59:19;;;;;;;3.30;2.40;;;;;;;;;;5013629;28;95338;-59
2022/09/27 10:01:49;;;;;;;2.72;2.17;;;;;;;;;;5013572;28;92549;-59
2022/09/27 10:04:19;;;;;;;3.97;2.33;;;;;;;;;;5014212;28;92857;-59
2022/09/27 10:06:46;;;;;;;2.17;1.95;;;;;;;;;;5009080;28;93286;-59
2022/09/27 10:09:16;;;;;;;2.55;2.33;;;;;;;;;;5014362;28;91746;-59
2022/09/27 10:12:06;;;;;;;2.67;2.20;;;;;;;;;;5014034;28;92832;-59
2022/09/27 10:14:33;;;;;;;3.10;1.92;;;;;;;;;;5013607;28;92456;-59
2022/09/27 10:17:05;;;;;;;2.30;1.95;;;;;;;;;;5015023;28;95432;-59
2022/09/27 10:19:33;;;;;;;2.00;1.85;;;;;;;;;;5012787;28;93167;-59
2022/09/27 10:22:11;;;;;;;3.75;2.10;;;;;;;;;;5013376;28;92509;-61
2022/09/27 10:24:52;;;;;;;3.20;2.42;;;;;;;;;;5013410;28;95115;-60
2022/09/27 10:27:47;;;;;;;5.80;2.30;;;;;;;;;;5003751;28;92775;-59
2022/09/27 10:30:32;;;;;;;3.85;2.47;;;;;;;;;;5007740;28;92623;-59
2022/09/27 10:33:04;;;;;;;4.35;2.08;;;;;;;;;;5003049;28;94807;-59
2022/09/27 10:35:43;;;;;;;9.50;2.20;;;;;;;;;;5013653;28;92466;-59
2022/09/27 10:38:17;;;;;;;8.93;2.30;;;;;;;;;;4999266;28;93306;-59
2022/09/27 10:40:44;;;;;;;2.53;1.90;;;;;;;;;;4998109;28;95121;-59
2022/09/27 10:43:22;;;;;;;2.35;2.00;;;;;;;;;;5004624;28;94932;-59
2022/09/27 10:46:07;;;;;;;7.28;1.75;;;;;;;;;;4997895;28;95289;-59
2022/09/27 10:48:34;;;;;;;2.65;1.90;;;;;;;;;;5028522;27;93183;-59
2022/09/27 10:51:06;;;;;;;6.25;1.75;;;;;;;;;;5011614;28;93561;-60
2022/09/27 10:53:43;;;;;;;4.72;1.88;;;;;;;;;;4993071;28;92763;-59
2022/09/27 10:56:23;;;;;;;2.78;1.90;;;;;;;;;;5000976;28;94149;-60
2022/09/27 10:58:50;;;;;;;2.72;1.98;;;;;;;;;;5007815;28;92995;-59
2022/09/27 11:01:18;;;;;;;4.75;1.60;;;;;;;;;;4995484;28;92956;-59
2022/09/27 11:04:01;;;;;;;5.80;1.88;;;;;;;;;;4998287;28;93731;-59
2022/09/27 11:06:29;;;;;;;2.28;2.08;;;;;;;;;;4996168;28;92725;-59
2022/09/27 11:09:08;;;;;;;3.45;1.83;;;;;;;;;;4996782;28;95709;-59
2022/09/27 11:11:35;;;;;;;2.55;1.80;;;;;;;;;;4993049;28;92538;-59
2022/09/27 11:14:15;;;;;;;1.90;1.60;;;;;;;;;;4991730;28;93055;-59
2022/09/27 11:16:55;;;;;;;1.48;1.38;;;;;;;;;;5046320;27;96050;-59
2022/09/27 11:19:39;;;;;;;2.25;1.40;;;;;;;;;;5013192;28;92585;-61
2022/09/27 11:22:21;;;;;;;2.95;1.55;;;;;;;;;;5003798;28;94348;-59
2022/09/27 11:25:00;;;;;;;3.20;1.65;;;;;;;;;;4999675;28;95445;-59
2022/09/27 11:27:44;;;;;;;2.83;1.52;;;;;;;;;;5000899;28;91842;-59
2022/09/27 11:30:15;;;;;;;1.83;1.60;;;;;;;;;;5010003;28;93170;-59
2022/09/27 11:33:10;;;;;;;2.47;1.60;;;;;;;;;;4998478;28;92531;-59
2022/09/27 11:35:37;;;;;;;1.75;1.55;;;;;;;;;;5010298;28;94789;-59
2022/09/27 11:38:30;;;;;;;3.33;1.60;;;;;;;;;;5005997;28;93105;-59
2022/09/27 11:41:35;;;;;;;2.33;1.48;;;;;;;;;;5009205;28;92868;-59
2022/09/27 11:44:20;;;;;;;2.05;1.42;;;;;;;;;;5003950;28;95654;-59
2022/09/27 11:46:52;;;;;;;2.85;1.20;;;;;;;;;;5012733;28;95304;-59
2022/09/27 11:49:18;;;;;;;1.42;1.27;;;;;;;;;;4996970;28;92904;-59
2022/09/27 11:51:47;;;;;;;1.33;1.23;;;;;;;;;;5015769;28;92866;-59
2022/09/27 11:54:19;;;;;;;1.77;1.45;;;;;;;;;;5001228;28;93236;-59
2022/09/27 11:57:04;;;;;;;1.75;1.35;;;;;;;;;;5004548;28;94360;-59
2022/09/27 11:59:37;;;;;;;1.08;1.08;;;;;;;;;;4995277;28;93401;-59
2022/09/27 12:02:06;;;;;;;6.30;1.25;;;;;;;;;;5005611;28;94797;-59
2022/09/27 12:04:44;;;;;;;1.15;1.13;;;;;;;;;;5004640;28;96381;-59
2022/09/27 12:07:26;;;;;;;2.35;1.30;;;;;;;;;;5003420;28;94226;-59
2022/09/27 12:09:56;;;;;;;1.83;1.73;;;;;;;;;;5008918;28;93563;-60
2022/09/27 12:12:26;;;;;;;2.80;1.10;;;;;;;;;;5010976;28;93025;-59
2022/09/27 12:14:58;;;;;;;1.35;1.15;;;;;;;;;;5001859;28;92745;-60
2022/09/27 12:17:35;;;;;;;1.17;1.02;;;;;;;;;;5014635;28;95202;-60
2022/09/27 12:20:05;;;;;;;3.20;1.10;;;;;;;;;;5015728;28;92443;-60
2022/09/27 12:22:59;;;;;;;1.45;1.25;;;;;;;;;;5011668;28;92480;-60
2022/09/27 12:25:40;;;;;;;5.60;1.30;;;;;;;;;;4995527;28;92903;-60
2022/09/27 12:28:29;;;;;;;2.13;1.00;;;;;;;;;;5005466;28;95583;-60
2022/09/27 12:31:01;;;;;;;0.88;0.88;;;;;;;;;;5000811;28;93179;-59
2022/09/27 12:33:56;;;;;;;1.70;1.10;;;;;;;;;;4998531;28;93097;-59
2022/09/27 12:36:27;;;;;;;1.05;1.00;;;;;;;;;;5016089;28;92729;-59
2022/09/27 12:39:12;;;;;;;1.52;0.98;;;;;;;;;;5014009;28;94960;-59
2022/09/27 12:41:44;;;;;;;1.23;1.10;;;;;;;;;;5015106;28;95508;-60
2022/09/27 12:44:20;;;;;;;1.05;1.00;;;;;;;;;;5034125;27;92528;-60
2022/09/27 12:47:04;;;;;;;1.17;1.03;;;;;;;;;;5032731;28;95152;-59
2022/09/27 12:49:53;;;;;;;1.17;1.00;;;;;;;;;;4995116;28;93994;-59
2022/09/27 12:52:29;;;;;;;2.97;1.20;;;;;;;;;;4996055;28;92399;-60
2022/09/27 12:55:08;;;;;;;1.13;0.90;;;;;;;;;;4996088;28;95334;-60
2022/09/27 12:57:35;;;;;;;2.22;1.20;;;;;;;;;;5011537;28;94729;-59
2022/09/27 13:00:01;;;;;;;1.08;1.08;;;;;;;;;;5002110;28;93423;-60
2022/09/27 13:02:48;;;;;;;2.13;1.10;;;;;;;;;;5007185;28;95214;-60
2022/09/27 13:05:34;;;;;;;0.88;0.88;;;;;;;;;;5009149;28;93173;-59
2022/09/27 13:08:17;;;;;;;5.50;0.98;;;;;;;;;;5005951;28;95224;-59
2022/09/27 13:10:54;;;;;;;1.40;1.13;;;;;;;;;;5017438;28;93892;-56
2022/09/27 13:13:28;;;;;;;18.63;1.30;;;;;;;;;;5004143;28;91802;-59
2022/09/27 13:16:02;;;;;;;3.75;1.13;;;;;;;;;;4998508;28;94250;-59
2022/09/27 13:18:48;;;;;;;6.68;1.20;;;;;;;;;;4996937;28;93235;-59
2022/09/27 13:21:34;;;;;;;7.30;1.13;;;;;;;;;;5006794;28;94878;-59
2022/09/27 13:24:32;;;;;;;4.00;0.90;;;;;;;;;;5012699;28;95331;-59
2022/09/27 13:27:00;;;;;;;1.95;1.15;;;;;;;;;;5006386;28;92479;-59
2022/09/27 13:29:28;;;;;;;1.38;1.00;;;;;;;;;;5008444;28;92902;-60
2022/09/27 13:32:01;;;;;;;3.17;1.00;;;;;;;;;;4993735;28;93420;-58
2022/09/27 13:34:50;;;;;;;2.75;1.40;;;;;;;;;;5003912;28;92500;-59
2022/09/27 13:37:39;;;;;;;2.97;1.08;;;;;;;;;;4997606;28;94686;-59
2022/09/27 13:40:09;;;;;;;1.27;0.95;;;;;;;;;;4995345;28;94448;-59
2022/09/27 13:42:49;;;;;;;0.90;0.90;;;;;;;;;;4993423;28;92990;-59
2022/09/27 13:45:19;;;;;;;1.48;1.10;;;;;;;;;;4993461;28;92872;-59
2022/09/27 13:47:47;;;;;;;1.50;1.10;;;;;;;;;;5008213;28;96132;-59
2022/09/27 13:50:28;;;;;;;1.90;0.93;;;;;;;;;;5008150;28;95250;-59
2022/09/27 13:53:02;;;;;;;1.08;1.00;;;;;;;;;;5010208;28;94247;-60
2022/09/27 13:55:48;;;;;;;1.50;0.88;;;;;;;;;;4997228;28;92736;-59
2022/09/27 13:58:50;;;;;;;3.15;1.02;;;;;;;;;;5000059;28;93428;-59
2022/09/27 14:01:40;;;;;;;1.88;1.10;;;;;;;;;;5001043;28;92682;-59
2022/09/27 14:04:25;;;;;;;1.85;1.00;;;;;;;;;;4992044;28;92757;-59
2022/09/27 14:06:57;;;;;;;4.82;1.00;;;;;;;;;;4993108;28;93097;-59
2022/09/27 14:09:26;;;;;;;0.80;0.75;;;;;;;;;;4995701;28;93761;-59
2022/09/27 14:12:07;;;;;;;1.38;1.27;;;;;;;;;;5014284;28;93035;-59
2022/09/27 14:14:34;;;;;;;1.10;1.00;;;;;;;;;;5012085;28;95555;-59
2022/09/27 14:17:06;;;;;;;1.60;1.10;;;;;;;;;;5002599;28;92540;-59
2022/09/27 14:19:38;;;;;;;1.52;0.82;;;;;;;;;;5010426;28;93091;-59
2022/09/27 14:22:10;;;;;;;1.40;1.00;;;;;;;;;;5013243;28;93213;-59
2022/09/27 14:24:49;;;;;;;1.33;1.10;;;;;;;;;;5025970;28;92594;-59
2022/09/27 14:27:24;;;;;;;1.80;1.08;;;;;;;;;;5000072;28;95299;-59
2022/09/27 14:30:01;;;;;;;1.02;1.00;;;;;;;;;;5004279;28;94153;-59
2022/09/27 14:32:36;;;;;;;1.48;1.00;;;;;;;;;;5004966;28;91839;-59
2022/09/27 14:38:00;;;;;;;2.25;1.33;;;;;;;;;;5005170;28;93056;-59
2022/09/27 14:40:55;;;;;;;1.00;0.90;;;;;;;;;;5004802;28;94814;-59
2022/09/27 14:43:22;;;;;;;1.42;1.10;;;;;;;;;;5010916;28;94454;-59
2022/09/27 14:45:50;;;;;;;1.33;1.10;;;;;;;;;;4997377;28;92892;-59
2022/09/27 14:48:26;;;;;;;1.10;0.95;;;;;;;;;;5005810;28;94714;-59
2022/09/27 14:51:18;;;;;;;0.88;0.88;;;;;;;;;;5007829;28;93915;-59
2022/09/27 14:53:46;;;;;;;1.77;1.10;;;;;;;;;;4994142;28;93373;-59
2022/09/27 14:56:16;;;;;;;1.00;0.90;;;;;;;;;;5006070;28;93221;-59
2022/09/27 14:58:46;;;;;;;1.50;0.95;;;;;;;;;;5010794;28;91766;-59
2022/09/27 15:01:17;;;;;;;1.17;0.93;;;;;;;;;;5002289;28;92493;-60
2022/09/27 15:03:44;;;;;;;2.72;1.20;;;;;;;;;;5007437;28;93399;-59
2022/09/27 15:06:10;;;;;;;5.15;1.40;;;;;;;;;;4994921;28;95879;-59
2022/09/27 15:08:37;;;;;;;2.28;1.02;;;;;;;;;;4996806;28;95554;-59
2022/09/27 15:11:06;;;;;;;0.95;0.93;;;;;;;;;;4993563;28;93147;-59
2022/09/27 15:13:33;;;;;;;0.90;0.90;;;;;;;;;;4991264;28;93480;-59
2022/09/27 15:16:00;;;;;;;1.17;1.08;;;;;;;;;;5000705;28;93276;-59
2022/09/27 15:18:42;;;;;;;0.88;0.88;;;;;;;;;;5019690;28;94449;-59
2022/09/27 15:21:10;;;;;;;1.73;1.15;;;;;;;;;;4996747;28;92902;-59
2022/09/27 15:23:38;;;;;;;1.75;1.15;;;;;;;;;;4996811;28;93293;-59
2022/09/27 15:26:18;;;;;;;1.95;1.45;;;;;;;;;;4993266;28;93996;-59
2022/09/27 15:28:45;;;;;;;2.75;1.00;;;;;;;;;;5000794;28;93912;-59
2022/09/27 15:31:12;;;;;;;1.83;1.23;;;;;;;;;;5014671;28;96447;-59
2022/09/27 15:33:39;;;;;;;1.00;1.00;;;;;;;;;;5009149;28;93361;-59
2022/09/27 15:36:09;;;;;;;0.98;0.90;;;;;;;;;;5004968;28;93370;-59
2022/09/27 15:38:46;;;;;;;0.80;0.80;;;;;;;;;;4997400;28;94162;-59